createdAt,value
2018-03-25T00:01:22.463Z,68.03
2018-03-25T00:06:50.738Z,66.60
2018-03-25T00:09:18.925Z,62.73
2018-03-25T00:11:47.109Z,62.90
2018-03-25T00:14:15.320Z,61.07
2018-03-25T00:16:43.486Z,57.53
2018-03-25T00:19:11.696Z,55.67
2018-03-25T00:21:39.883Z,57.67
2018-03-25T00:24:08.100Z,57.53
2018-03-25T00:26:36.313Z,55.63
2018-03-25T00:29:04.496Z,60.60
2018-03-25T00:31:32.736Z,56.07
2018-03-25T00:34:21.324Z,56.40
2018-03-25T00:36:49.567Z,58.87
2018-03-25T00:39:17.750Z,60.57
2018-03-25T00:41:45.966Z,56.10
2018-03-25T00:44:14.163Z,56.20
2018-03-25T00:46:43.148Z,52.80
2018-03-25T00:49:12.099Z,56.33
2018-03-25T00:51:40.393Z,55.73
2018-03-25T00:57:21.826Z,56.17
2018-03-25T01:00:20.859Z,52.13
2018-03-25T01:02:49.049Z,77.60
2018-03-25T01:05:17.232Z,78.30
2018-03-25T01:07:45.436Z,81.33
2018-03-25T01:10:14.367Z,74.07
2018-03-25T01:12:42.579Z,53.17
2018-03-25T01:18:20.876Z,52.10
2018-03-25T01:20:49.052Z,55.40
2018-03-25T01:23:17.244Z,51.23
2018-03-25T01:25:45.469Z,55.90
2018-03-25T01:28:13.653Z,52.17
2018-03-25T01:30:41.838Z,53.33
2018-03-25T01:33:10.083Z,55.10
2018-03-25T01:35:38.259Z,55.70
2018-03-25T01:38:06.451Z,55.90
2018-03-25T01:40:34.686Z,66.67
2018-03-25T01:43:03.651Z,50.50
2018-03-25T01:45:31.832Z,53.93
2018-03-25T01:48:00.095Z,51.03
2018-03-25T01:50:30.307Z,52.30
2018-03-25T01:52:58.494Z,52.97
2018-03-25T01:55:26.713Z,51.47
2018-03-25T02:11:37.258Z,50.03
2018-03-25T02:14:22.817Z,49.80
2018-03-25T02:17:21.944Z,55.37
2018-03-25T02:19:50.157Z,48.70
2018-03-25T02:22:24.678Z,65.33
2018-03-25T02:25:20.590Z,47.00
2018-03-25T02:27:48.767Z,48.93
2018-03-25T02:30:16.996Z,56.77
2018-03-25T02:32:45.975Z,52.07
2018-03-25T02:35:14.186Z,55.37
2018-03-25T02:40:42.934Z,71.07
2018-03-25T02:43:11.148Z,50.20
2018-03-25T02:45:39.394Z,46.27
2018-03-25T02:48:07.580Z,45.80
2018-03-25T02:50:36.536Z,49.27
2018-03-25T02:53:24.268Z,46.30
2018-03-25T02:55:52.441Z,49.10
2018-03-25T02:58:20.617Z,44.77
2018-03-25T03:00:48.845Z,44.77
2018-03-25T03:03:17.065Z,47.17
2018-03-25T03:08:46.915Z,45.63
2018-03-25T03:11:15.099Z,45.60
2018-03-25T03:13:44.067Z,45.03
2018-03-25T03:16:22.246Z,53.20
2018-03-25T03:18:50.424Z,46.10
2018-03-25T03:21:22.526Z,46.17
2018-03-25T03:24:21.044Z,63.83
2018-03-25T03:26:49.257Z,44.00
2018-03-25T03:29:17.460Z,45.07
2018-03-25T03:31:45.643Z,51.87
2018-03-25T03:34:22.616Z,46.10
2018-03-25T03:39:52.342Z,66.00
2018-03-25T03:52:56.699Z,53.13
2018-03-25T03:55:24.921Z,46.53
2018-03-25T03:57:53.101Z,43.37
2018-03-25T04:00:21.339Z,47.07
2018-03-25T04:02:49.522Z,43.80
2018-03-25T04:05:24.433Z,41.17
2018-03-25T04:08:20.648Z,35.87
2018-03-25T04:10:48.828Z,42.27
2018-03-25T04:13:16.999Z,43.33
2018-03-25T04:18:45.146Z,36.60
2018-03-25T04:21:13.351Z,41.70
2018-03-25T04:23:41.554Z,39.93
2018-03-25T04:26:09.803Z,41.03
2018-03-25T04:28:37.995Z,37.17
2018-03-25T04:31:06.172Z,40.70
2018-03-25T04:33:34.383Z,40.57
2018-03-25T04:36:02.576Z,33.70
2018-03-25T04:38:30.757Z,38.87
2018-03-25T04:40:58.981Z,37.40
2018-03-25T04:43:27.169Z,39.43
2018-03-25T04:46:22.029Z,32.20
2018-03-25T04:48:50.205Z,29.20
2018-03-25T04:51:18.396Z,32.10
2018-03-25T04:53:46.599Z,34.17
2018-03-25T04:56:14.858Z,38.40
2018-03-25T04:58:43.842Z,33.77
2018-03-25T05:01:12.802Z,33.80
2018-03-25T05:03:41.024Z,33.47
2018-03-25T05:06:09.195Z,37.90
2018-03-25T05:08:38.140Z,34.50
2018-03-25T05:11:25.493Z,35.00
2018-03-25T05:14:21.411Z,35.37
2018-03-25T05:16:49.646Z,33.80
2018-03-25T05:19:17.824Z,33.57
2018-03-25T05:21:46.043Z,42.60
2018-03-25T05:24:15.032Z,36.50
2018-03-25T05:26:43.990Z,34.97
2018-03-25T05:29:12.200Z,33.43
2018-03-25T05:31:41.267Z,34.90
2018-03-25T05:34:09.468Z,34.23
2018-03-25T05:36:37.702Z,32.47
2018-03-25T05:39:05.915Z,32.87
2018-03-25T05:41:34.898Z,33.00
2018-03-25T05:44:03.857Z,32.20
2018-03-25T05:46:32.036Z,32.73
2018-03-25T05:49:00.254Z,33.50
2018-03-25T05:51:29.228Z,32.47
2018-03-25T05:53:57.793Z,29.37
2018-03-25T05:56:26.000Z,28.30
2018-03-25T05:58:54.990Z,28.27
2018-03-25T06:01:23.972Z,27.53
2018-03-25T06:03:52.912Z,27.27
2018-03-25T06:06:21.144Z,27.67
2018-03-25T06:08:50.083Z,27.57
2018-03-25T06:11:18.256Z,27.40
2018-03-25T06:13:46.475Z,31.50
2018-03-25T06:16:15.416Z,25.50
2018-03-25T06:18:43.680Z,28.30
2018-03-25T06:21:11.865Z,29.00
2018-03-25T06:23:40.076Z,31.30
2018-03-25T06:26:08.295Z,34.23
2018-03-25T06:28:36.489Z,25.90
2018-03-25T06:31:04.725Z,26.53
2018-03-25T06:33:32.920Z,27.13
2018-03-25T06:36:01.220Z,24.17
2018-03-25T06:38:29.412Z,26.93
2018-03-25T06:40:57.592Z,23.03
2018-03-25T06:43:25.835Z,30.70
2018-03-25T06:45:54.021Z,28.87
2018-03-25T06:48:22.192Z,25.83
2018-03-25T06:53:51.338Z,27.40
2018-03-25T06:56:20.278Z,25.73
2018-03-25T06:58:48.595Z,25.93
2018-03-25T07:01:16.766Z,25.17
2018-03-25T07:06:45.608Z,22.53
2018-03-25T07:09:13.792Z,27.93
2018-03-25T07:11:41.972Z,25.70
2018-03-25T07:14:10.189Z,23.80
2018-03-25T07:16:38.395Z,29.30
2018-03-25T07:22:07.740Z,27.20
2018-03-25T07:24:35.917Z,21.93
2018-03-25T07:27:04.217Z,21.20
2018-03-25T07:29:33.893Z,21.13
2018-03-25T07:32:02.094Z,20.60
2018-03-25T07:34:30.278Z,20.87
2018-03-25T07:37:00.016Z,22.87
2018-03-25T07:39:28.973Z,24.77
2018-03-25T07:41:57.219Z,20.13
2018-03-25T07:44:25.397Z,22.00
2018-03-25T07:49:38.076Z,19.70
2018-03-25T07:52:06.254Z,22.27
2018-03-25T07:54:35.236Z,22.93
2018-03-25T07:57:03.437Z,21.00
2018-03-25T07:59:31.705Z,19.80
2018-03-25T08:02:00.687Z,22.83
2018-03-25T08:04:29.643Z,21.20
2018-03-25T08:09:58.663Z,19.50
2018-03-25T08:12:26.895Z,20.50
2018-03-25T08:14:55.097Z,18.17
2018-03-25T08:17:23.311Z,17.90
2018-03-25T08:19:52.261Z,19.23
2018-03-25T08:22:20.436Z,17.87
2018-03-25T08:24:48.675Z,19.63
2018-03-25T08:27:16.855Z,19.50
2018-03-25T08:29:45.177Z,21.50
2018-03-25T08:32:13.395Z,17.87
2018-03-25T08:34:42.331Z,20.60
2018-03-25T08:37:10.514Z,20.67
2018-03-25T08:39:38.882Z,19.63
2018-03-25T08:54:22.616Z,19.77
2018-03-25T09:03:22.462Z,16.17
2018-03-25T09:05:50.655Z,13.90
2018-03-25T09:11:24.347Z,16.00
2018-03-25T09:14:22.663Z,16.90
2018-03-25T09:19:52.704Z,18.20
2018-03-25T09:25:22.652Z,15.20
2018-03-25T09:27:50.841Z,15.27
2018-03-25T09:33:19.838Z,13.90
2018-03-25T10:12:23.793Z,15.03
2018-03-25T10:14:52.001Z,14.60
2018-03-25T10:17:23.620Z,15.03
2018-03-25T10:25:53.726Z,17.37
2018-03-25T10:28:22.503Z,17.20
2018-03-25T10:34:21.419Z,19.50
2018-03-25T10:40:21.257Z,18.00
2018-03-25T10:57:53.784Z,15.07
2018-03-25T11:00:23.387Z,17.03
2018-03-25T11:03:22.029Z,15.50
2018-03-25T11:08:51.441Z,12.77
2018-03-25T11:11:19.618Z,12.37
2018-03-25T11:13:47.795Z,12.67
2018-03-25T11:19:16.045Z,14.67
2018-03-25T11:21:44.237Z,17.27
2018-03-25T11:24:12.416Z,15.83
2018-03-25T11:26:40.674Z,17.37
2018-03-25T11:29:22.430Z,16.90
2018-03-25T11:31:51.667Z,16.10
2018-03-25T11:37:20.150Z,15.10
2018-03-25T11:39:48.344Z,13.60
2018-03-25T11:42:22.724Z,15.57
2018-03-25T11:44:51.690Z,15.67
2018-03-25T11:47:19.891Z,16.03
2018-03-25T11:49:48.160Z,15.57
2018-03-25T11:52:19.000Z,18.00
2018-03-25T11:54:47.183Z,18.37
2018-03-25T11:57:15.448Z,13.97
2018-03-25T11:59:43.712Z,13.17
2018-03-25T12:05:12.699Z,13.37
2018-03-25T12:10:41.356Z,14.40
2018-03-25T12:13:09.540Z,17.30
2018-03-25T12:21:38.459Z,15.40
2018-03-25T12:27:22.571Z,17.20
2018-03-25T12:30:22.612Z,15.00
2018-03-25T12:36:22.687Z,12.83
2018-03-25T12:39:21.024Z,17.70
2018-03-25T13:00:21.355Z,15.80
2018-03-25T13:02:49.854Z,17.70
2018-03-25T13:05:25.272Z,17.20
2018-03-25T13:13:54.932Z,13.37
2018-03-25T13:16:23.128Z,14.17
2018-03-25T13:21:52.784Z,21.40
2018-03-25T13:24:24.323Z,21.97
2018-03-25T13:36:21.779Z,13.30
2018-03-25T13:48:22.551Z,19.60
2018-03-25T13:51:21.701Z,16.20
2018-03-25T14:06:21.954Z,15.33
2018-03-25T14:17:53.150Z,15.73
2018-03-25T14:20:21.342Z,15.90
2018-03-25T14:35:23.019Z,14.17
2018-03-25T14:50:22.567Z,15.40
2018-03-25T14:59:21.467Z,18.97
2018-03-25T15:04:49.856Z,15.03
2018-03-25T15:10:24.757Z,16.27
2018-03-25T15:13:09.617Z,15.70
2018-03-25T15:15:37.836Z,16.97
2018-03-25T15:18:23.818Z,16.13
2018-03-25T15:24:21.547Z,15.73
2018-03-25T15:29:49.972Z,13.73
2018-03-25T15:38:23.352Z,16.10
2018-03-25T15:40:52.472Z,17.40
2018-03-25T15:43:23.701Z,15.77
2018-03-25T15:49:23.060Z,17.10
2018-03-25T15:51:51.236Z,13.30
2018-03-25T15:57:21.329Z,14.70
2018-03-25T16:02:51.553Z,15.70
2018-03-25T16:05:19.750Z,14.50
2018-03-25T16:07:47.976Z,16.33
2018-03-25T16:10:23.464Z,14.60
2018-03-25T16:12:51.649Z,17.80
2018-03-25T16:15:19.840Z,18.50
2018-03-25T16:17:48.069Z,18.30
2018-03-25T16:20:23.772Z,17.83
2018-03-25T16:22:52.005Z,17.00
2018-03-25T16:28:23.184Z,16.53
2018-03-25T16:30:51.371Z,16.00
2018-03-25T16:33:19.566Z,17.07
2018-03-25T16:35:47.811Z,15.23
2018-03-25T16:38:23.173Z,19.77
2018-03-25T16:56:22.359Z,15.57
2018-03-25T17:02:22.177Z,17.27
2018-03-25T17:17:21.566Z,20.13
2018-03-25T17:31:50.145Z,19.90
2018-03-25T17:37:25.434Z,19.80
2018-03-25T17:40:21.885Z,20.07
2018-03-25T17:42:50.840Z,18.83
2018-03-25T17:45:19.106Z,21.73
2018-03-25T17:53:49.094Z,20.30
2018-03-25T17:56:18.101Z,22.23
2018-03-25T17:58:47.108Z,23.27
2018-03-25T18:01:23.423Z,23.40
2018-03-25T18:03:51.660Z,18.80
2018-03-25T18:06:20.334Z,19.40
2018-03-25T18:08:48.548Z,18.63
2018-03-25T18:11:16.785Z,19.77
2018-03-25T18:13:44.985Z,17.03
2018-03-25T18:19:24.585Z,18.63
2018-03-25T18:25:21.404Z,20.73
2018-03-25T18:31:21.579Z,21.63
2018-03-25T18:36:50.659Z,20.20
2018-03-25T18:39:18.852Z,21.43
2018-03-25T18:41:47.340Z,18.10
2018-03-25T18:44:23.294Z,22.77
2018-03-25T18:46:51.698Z,20.50
2018-03-25T18:49:24.026Z,21.00
2018-03-25T18:51:52.348Z,20.53
2018-03-25T18:54:21.313Z,21.13
2018-03-25T18:56:49.541Z,19.40
2018-03-25T18:59:17.733Z,21.10
2018-03-25T19:01:46.035Z,22.00
2018-03-25T19:04:14.267Z,17.43
2018-03-25T19:06:42.458Z,18.87
2018-03-25T19:09:10.795Z,23.30
2018-03-25T19:12:06.273Z,22.40
2018-03-25T19:14:34.653Z,22.30
2018-03-25T19:20:03.941Z,19.53
2018-03-25T19:22:33.277Z,26.70
2018-03-25T19:28:02.833Z,23.27
2018-03-25T19:30:31.267Z,26.50
2018-03-25T19:32:59.458Z,22.73
2018-03-25T19:35:27.686Z,22.90
2018-03-25T19:37:55.882Z,19.60
2018-03-25T19:40:24.170Z,27.90
2018-03-25T19:42:53.171Z,22.97
2018-03-25T19:45:21.361Z,24.50
2018-03-25T19:47:50.322Z,23.60
2018-03-25T19:50:18.650Z,27.40
2018-03-25T19:55:48.660Z,18.97
2018-03-25T20:01:18.001Z,24.23
2018-03-25T20:03:46.189Z,21.40
2018-03-25T20:06:14.366Z,19.47
2018-03-25T20:08:42.591Z,27.37
2018-03-25T20:11:10.853Z,20.20
2018-03-25T20:13:39.187Z,24.80
2018-03-25T20:16:07.482Z,22.70
2018-03-25T20:18:35.748Z,23.30
2018-03-25T20:21:23.653Z,25.90
2018-03-25T20:23:53.477Z,21.13
2018-03-25T20:26:21.669Z,23.20
2018-03-25T20:28:49.895Z,23.50
2018-03-25T20:31:18.107Z,23.90
2018-03-25T20:33:47.199Z,22.27
2018-03-25T20:36:15.418Z,24.03
2018-03-25T20:38:43.621Z,26.43
2018-03-25T20:41:12.619Z,22.33
2018-03-25T20:43:40.847Z,20.60
2018-03-25T20:46:09.033Z,23.77
2018-03-25T20:51:39.008Z,21.77
2018-03-25T20:56:55.938Z,21.80
2018-03-25T20:59:24.137Z,25.17
2018-03-25T21:04:53.213Z,27.00
2018-03-25T21:16:23.543Z,25.07
2018-03-25T21:18:51.725Z,22.77
2018-03-25T21:21:20.018Z,30.77
2018-03-25T21:23:49.069Z,31.60
2018-03-25T21:26:20.325Z,25.47
2018-03-25T21:28:48.501Z,26.97
2018-03-25T21:31:22.913Z,21.33
2018-03-25T21:33:51.116Z,40.73
2018-03-25T21:36:27.932Z,31.77
2018-03-25T21:38:56.880Z,40.97
2018-03-25T21:41:25.070Z,26.00
2018-03-25T21:46:53.817Z,34.17
2018-03-25T21:49:22.004Z,27.43
2018-03-25T21:51:50.298Z,26.87
2018-03-25T21:54:18.559Z,22.40
2018-03-25T21:56:46.741Z,29.13
2018-03-25T22:02:16.512Z,24.83
2018-03-25T22:04:44.717Z,25.83
2018-03-25T22:07:12.909Z,34.60
2018-03-25T22:09:41.142Z,25.57
2018-03-25T22:12:23.242Z,28.53
2018-03-25T22:14:52.901Z,32.30
2018-03-25T22:17:21.091Z,26.37
2018-03-25T22:19:49.267Z,43.67
2018-03-25T22:22:17.493Z,35.30
2018-03-25T22:24:45.672Z,29.20
2018-03-25T22:27:24.256Z,29.40
2018-03-25T22:29:52.435Z,30.97
2018-03-25T22:35:22.465Z,29.60
2018-03-25T22:37:51.406Z,29.00
2018-03-25T22:40:19.621Z,31.77
2018-03-25T22:42:47.849Z,29.20
2018-03-25T22:45:16.018Z,31.03
2018-03-25T22:47:44.209Z,27.77
2018-03-25T22:50:12.430Z,31.70
2018-03-25T22:52:41.390Z,27.40
2018-03-25T22:55:23.355Z,29.60
2018-03-25T22:57:51.593Z,29.40
2018-03-25T23:00:23.444Z,26.43
2018-03-25T23:02:51.684Z,28.20
2018-03-25T23:05:19.873Z,28.50
2018-03-25T23:07:48.091Z,27.13
2018-03-25T23:10:17.082Z,26.63
2018-03-25T23:12:45.267Z,27.80
2018-03-25T23:15:13.458Z,27.40
2018-03-25T23:17:41.670Z,27.47
2018-03-25T23:20:09.839Z,26.97
2018-03-25T23:22:38.031Z,28.53
2018-03-25T23:25:07.986Z,30.27
2018-03-25T23:27:36.256Z,29.30
2018-03-25T23:30:04.425Z,30.30
2018-03-25T23:32:32.677Z,28.63
2018-03-25T23:35:02.267Z,27.33
2018-03-25T23:37:30.454Z,25.67
2018-03-25T23:39:59.424Z,25.90
2018-03-25T23:45:29.898Z,26.43
2018-03-25T23:47:58.088Z,28.17
2018-03-25T23:50:26.260Z,23.40
2018-03-25T23:52:54.481Z,23.77
2018-03-25T23:55:22.691Z,23.07
2018-03-25T23:57:52.363Z,23.67
